AirNav   Everest Fuels
 
 1746 users online  

7M4 Osceola Municipal Airport
Osceola, Arkansas, USA

GOING TO OSCEOLA?


FAA INFORMATION EFFECTIVE 26 JANUARY 2023

Location

FAA Identifier: 7M4
Lat/Long: 35-41-28.1000N 090-00-36.4000W
35-41.468333N 090-00.606667W
35.6911389,-90.0101111
(estimated)
Elevation: 234.7 ft. / 71.5 m (surveyed)
Variation: 02E (1985)
From city: 2 miles SW of OSCEOLA, AR
Time zone: UTC -6 (UTC -5 during Daylight Saving Time)
Zip code: 72370

Airport Operations

Airport use: Open to the public
Activation date: 10/1965
Control tower: no
ARTCC: MEMPHIS CENTER
FSS: JONESBORO FLIGHT SERVICE STATION
NOTAMs facility: JBR (NOTAM-D service available)
Attendance: UNATNDD
FOR ARPT ATTENDANT CALL 870-838-5578.
Wind indicator: lighted
Segmented circle: yes
Lights: ACTVT REIL RWY 19; MIRL RWY 01/19 - CTAF.
Beacon: white-green (lighted land airport)
Operates sunset to sunrise.

Airport Communications

CTAF/UNICOM: 122.8
MEMPHIS APPROACH: 119.1
MEMPHIS DEPARTURE: 119.1
WX ASOS at HKA (17 nm NE): 135.025 (870-763-8206)

Nearby radio navigation aids

VOR radial/distance  VOR name  Freq  Var
JBRr111/30.2JONESBORO VOR/DME108.6000W
GQEr044/30.8GILMORE VOR/DME113.0004E

Airport Services

Fuel available: 100LL
100LL:FUEL AVBL 24 HRS WITH CREDIT CARD.
Parking: hangars and tiedowns
Airframe service: NONE
Powerplant service: NONE
Bottled oxygen: NONE
Bulk oxygen: NONE

Runway Information

Runway 1/19

Dimensions: 3799 x 75 ft. / 1158 x 23 m
Surface: asphalt, in good condition
Weight bearing capacity: 
Single wheel: 8.5
Runway edge lights: medium intensity
RUNWAY 1  RUNWAY 19
Latitude: 35-41.159252N35-41.777922N
Longitude: 090-00.666283W090-00.547943W
Elevation: 234.3 ft.234.1 ft.
Traffic pattern: leftleft
Runway heading: 007 magnetic, 009 true187 magnetic, 189 true
Markings: basic, in good conditionnonprecision, in good condition
Runway end identifier lights: yesyes
Touchdown point: yes, no lightsyes, no lights
Obstructions: 25 ft. tree, 815 ft. from runway, 275 ft. left of centerline, 24:1 slope to clear31 ft. pole, lighted, 550 ft. from runway, 380 ft. left of centerline, 11:1 slope to clear

Airport Ownership and Management from official FAA records

Ownership: Publicly-owned
Owner: CITY OF OSCEOLA
PO BOX 403
OSCEOLA, AR 72370
Phone 870-563-5245
Manager: RAY FULMER
200 AIRPORT ROAD
OSCEOLA, AR 72370
Phone 479-522-1150

Airport Operational Statistics

Aircraft based on the field: 14
Single engine airplanes: 14
    
Aircraft operations: avg 36/day *
92% local general aviation
8% transient general aviation
* for 12-month period ending 30 September 2020

Additional Remarks

FOR CD CTC MEMPHIS APCH AT 901-842-8457.

Instrument Procedures

NOTE: All procedures below are presented as PDF files. If you need a reader for these files, you should download the free Adobe Reader.

NOT FOR NAVIGATION. Please procure official charts for flight.
FAA instrument procedures published for use from 26 January 2023 at 0901Z to 23 February 2023 at 0900z.

 
IAPs - Instrument Approach Procedures
RNAV (GPS) RWY 19   download
NOTE: Special Take-Off Minimums/Departure Procedures apply   download (131KB)

Other nearby airports with instrument procedures:

KMXA - Manila Municipal Airport (14 nm NW)
KBYH - Arkansas International Airport (17 nm N)
KHKA - Blytheville Municipal Airport (17 nm NE)
KNQA - Millington/Memphis Airport (21 nm S)
M04 - Covington Municipal Airport (22 nm E)
 
Loc | Ops | Rwys | IFR | FBO | Links
Com | Nav | Svcs | Stats | Notes
Area around 7M4 (Osceola Municipal Airport)
 
Road maps at: MapQuest Bing Google
 
Aerial photo
WARNING: Photo may not be current or correct
Aerial photo of 7M4 (Osceola Municipal Airport)
Photo courtesy of the Arkansas Department of Aeronautics
Taken in the Spring of 2007

Do you have a better or more recent aerial photo of Osceola Municipal Airport that you would like to share? If so, please send us your photo.

 
Sectional chart

 
Airport distance calculator
Flying to Osceola Municipal Airport? Find the distance to fly.

From to 7M4

Sunrise and sunset
Times for 06-Feb-2023
 Local
(UTC-6)
 Zulu
(UTC)
Morning civil twilight06:3012:30
Sunrise06:5712:57
Sunset17:3123:31
Evening civil twilight17:5823:58

Current date and time
Zulu (UTC)  06-Feb-2023 16:04:11
Local (UTC-6)  06-Feb-2023 10:04:11
 
METAR
KHKA 
17nm NE 
061553Z AUTO 16007KT 10SM CLR 11/08 A3020 RMK AO2 SLP227 T01110078 $
KBYH 
17nm NE 
061550Z 17009KT 10SM SKC 09/05 A3021
KNQA 
22nm S 
061550Z 14005KT 10SM CLR 10/10 A3019
KM04 
22nm E 
061545Z AUTO 13004KT 10SM CLR 10/08 A3022 RMK A01
KTKX 
32nm N 
061555Z AUTO 12005KT 6SM BR CLR 08/08 A3020 RMK AO2 TSNO
KJBR 
32nm W 
061553Z AUTO 12003KT M1/4SM FG VV002 07/07 A3020 RMK AO2 SLP226 T00670067 $
TAF
KJBR 
32nm W 
061143Z 0612/0712 00000KT 2SM BR SCT002 TEMPO 0612/0614 1/2SM FG VV002 FM061600 14008KT 6SM BR SCT010 FM061800 17014G20KT P6SM SCT030 FM070000 18010KT P6SM SCT040 FM070700 19009KT P6SM BKN040
KMEM 
37nm S 
061143Z 0612/0718 14003KT 6SM BR SKC TEMPO 0612/0613 00000KT 4SM BR FM061500 16010KT P6SM FEW010 FM061800 17011G17KT P6SM FEW040 FM070000 18009KT P6SM FEW250 FM071500 19010KT P6SM SCT025
NOTAMs
Click for the latest NOTAMs
NOTAMs are issued by the DoD/FAA and will open in a separate window not controlled by AirNav.

 

 
 

FBO, Fuel Providers, and Aircraft Ground Support

  
 Business Name 
 
 Contact 
 
 Services / Description 
 
Fuel Prices
 
Comments
  
City of Osceola 870-563-5245
no information available

If you are affiliated with City of Osceola and would like to show here your services, contact info, web link, logo, and more, click here
100LL
SS $5.00 
 Updated 16-Nov-2022
 
   write
SS=Self service
Update Fuel Prices
 

Would you like to see your business listed on this page?

 If your business provides an interesting product or service to pilots, flight crews, aircraft, or users of the Osceola Municipal Airport, you should consider listing it here.  To start the listing process, click on the button below
 
Add a business
 

Other Pages about Osceola Municipal Airport

Update a link
 
Copyright © AirNav, LLC. All rights reserved. Privacy Policy  Contact